sensor_id;sensor_type;location;lat;lon;timestamp;pressure;altitude;pressure_sealevel;temperature;humidity
76819;BME280;65772;51.096;17.006;2024-01-25T00:01:14;100037.10;;;9.06;59.89
76819;BME280;65772;51.096;17.006;2024-01-25T00:03:45;100034.13;;;9.04;59.79
76819;BME280;65772;51.096;17.006;2024-01-25T00:06:15;100039.92;;;9.04;59.97
76819;BME280;65772;51.096;17.006;2024-01-25T00:08:46;100052.87;;;9.04;59.73
76819;BME280;65772;51.096;17.006;2024-01-25T00:11:17;100039.09;;;9.05;59.78
76819;BME280;65772;51.096;17.006;2024-01-25T00:13:47;100045.39;;;9.05;59.70
76819;BME280;65772;51.096;17.006;2024-01-25T00:16:19;100030.16;;;9.02;59.99
76819;BME280;65772;51.096;17.006;2024-01-25T00:18:50;100039.14;;;9.01;59.68
76819;BME280;65772;51.096;17.006;2024-01-25T00:21:21;100042.86;;;8.99;59.59
76819;BME280;65772;51.096;17.006;2024-01-25T00:23:51;100051.89;;;9.00;59.79
76819;BME280;65772;51.096;17.006;2024-01-25T00:26:22;100051.41;;;9.01;59.51
76819;BME280;65772;51.096;17.006;2024-01-25T00:28:52;100055.50;;;9.01;59.48
76819;BME280;65772;51.096;17.006;2024-01-25T00:31:23;100044.83;;;9.03;59.38
76819;BME280;65772;51.096;17.006;2024-01-25T00:33:54;100054.58;;;9.04;59.15
76819;BME280;65772;51.096;17.006;2024-01-25T00:36:26;100050.66;;;9.04;58.87
76819;BME280;65772;51.096;17.006;2024-01-25T00:38:58;100053.90;;;9.04;58.74
76819;BME280;65772;51.096;17.006;2024-01-25T00:41:32;100054.28;;;9.06;58.62
76819;BME280;65772;51.096;17.006;2024-01-25T00:44:04;100069.61;;;9.06;58.43
76819;BME280;65772;51.096;17.006;2024-01-25T00:46:35;100073.48;;;9.05;58.37
76819;BME280;65772;51.096;17.006;2024-01-25T00:49:06;100066.54;;;9.06;57.87
76819;BME280;65772;51.096;17.006;2024-01-25T00:51:38;100075.09;;;9.07;58.03
76819;BME280;65772;51.096;17.006;2024-01-25T00:54:14;100078.09;;;9.10;57.88
76819;BME280;65772;51.096;17.006;2024-01-25T00:56:43;100070.11;;;9.11;57.02
76819;BME280;65772;51.096;17.006;2024-01-25T00:59:14;100083.01;;;9.09;56.63
76819;BME280;65772;51.096;17.006;2024-01-25T01:01:47;100069.92;;;9.10;56.50
76819;BME280;65772;51.096;17.006;2024-01-25T01:04:19;100071.40;;;9.08;56.02
76819;BME280;65772;51.096;17.006;2024-01-25T01:06:50;100086.87;;;9.08;56.29
76819;BME280;65772;51.096;17.006;2024-01-25T01:09:20;100089.05;;;9.07;56.28
76819;BME280;65772;51.096;17.006;2024-01-25T01:11:51;100093.47;;;9.07;56.22
76819;BME280;65772;51.096;17.006;2024-01-25T01:14:21;100102.83;;;9.06;56.10
76819;BME280;65772;51.096;17.006;2024-01-25T01:16:52;100102.80;;;9.05;56.13
76819;BME280;65772;51.096;17.006;2024-01-25T01:19:23;100103.80;;;9.05;56.26
76819;BME280;65772;51.096;17.006;2024-01-25T01:21:53;100105.23;;;9.07;55.89
76819;BME280;65772;51.096;17.006;2024-01-25T01:24:24;100109.77;;;9.10;56.14
76819;BME280;65772;51.096;17.006;2024-01-25T01:26:55;100114.05;;;9.12;56.21
76819;BME280;65772;51.096;17.006;2024-01-25T01:29:25;100116.29;;;9.12;55.55
76819;BME280;65772;51.096;17.006;2024-01-25T01:31:56;100112.99;;;9.10;55.58
76819;BME280;65772;51.096;17.006;2024-01-25T01:34:27;100118.09;;;9.09;55.92
76819;BME280;65772;51.096;17.006;2024-01-25T01:36:58;100120.16;;;9.10;56.00
76819;BME280;65772;51.096;17.006;2024-01-25T01:39:28;100131.97;;;9.13;55.94
76819;BME280;65772;51.096;17.006;2024-01-25T01:41:59;100126.92;;;9.14;55.36
76819;BME280;65772;51.096;17.006;2024-01-25T01:44:29;100124.72;;;9.15;55.23
76819;BME280;65772;51.096;17.006;2024-01-25T01:47:00;100123.56;;;9.16;55.16
76819;BME280;65772;51.096;17.006;2024-01-25T01:49:31;100128.67;;;9.16;55.22
76819;BME280;65772;51.096;17.006;2024-01-25T01:52:02;100130.89;;;9.16;55.25
76819;BME280;65772;51.096;17.006;2024-01-25T01:54:33;100123.67;;;9.14;55.14
76819;BME280;65772;51.096;17.006;2024-01-25T01:57:04;100132.23;;;9.15;55.33
76819;BME280;65772;51.096;17.006;2024-01-25T01:59:35;100136.05;;;9.17;55.34
76819;BME280;65772;51.096;17.006;2024-01-25T02:02:06;100138.78;;;9.18;55.00
76819;BME280;65772;51.096;17.006;2024-01-25T02:04:37;100139.05;;;9.21;55.21
76819;BME280;65772;51.096;17.006;2024-01-25T02:07:08;100151.23;;;9.29;59.33
76819;BME280;65772;51.096;17.006;2024-01-25T02:09:39;100147.23;;;9.43;58.67
76819;BME280;65772;51.096;17.006;2024-01-25T02:12:10;100138.61;;;9.51;57.26
76819;BME280;65772;51.096;17.006;2024-01-25T02:14:40;100147.33;;;9.51;55.81
76819;BME280;65772;51.096;17.006;2024-01-25T02:17:11;100144.71;;;9.50;55.84
76819;BME280;65772;51.096;17.006;2024-01-25T02:19:41;100147.77;;;9.50;55.66
76819;BME280;65772;51.096;17.006;2024-01-25T02:24:48;100146.97;;;9.51;55.65
76819;BME280;65772;51.096;17.006;2024-01-25T02:27:19;100146.23;;;9.49;55.62
76819;BME280;65772;51.096;17.006;2024-01-25T02:29:49;100137.13;;;9.52;55.62
76819;BME280;65772;51.096;17.006;2024-01-25T02:32:20;100141.92;;;9.54;55.48
76819;BME280;65772;51.096;17.006;2024-01-25T02:34:51;100140.21;;;9.54;55.15
76819;BME280;65772;51.096;17.006;2024-01-25T02:37:22;100136.48;;;9.54;55.23
76819;BME280;65772;51.096;17.006;2024-01-25T02:39:53;100134.27;;;9.54;55.37
76819;BME280;65772;51.096;17.006;2024-01-25T02:42:23;100132.36;;;9.53;55.08
76819;BME280;65772;51.096;17.006;2024-01-25T02:44:54;100129.34;;;9.54;55.20
76819;BME280;65772;51.096;17.006;2024-01-25T02:47:24;100134.27;;;9.54;55.04
76819;BME280;65772;51.096;17.006;2024-01-25T02:49:55;100130.86;;;9.54;54.75
76819;BME280;65772;51.096;17.006;2024-01-25T02:52:26;100133.80;;;9.56;54.73
76819;BME280;65772;51.096;17.006;2024-01-25T02:54:56;100132.11;;;9.56;55.04
76819;BME280;65772;51.096;17.006;2024-01-25T02:57:27;100133.52;;;9.58;54.93
76819;BME280;65772;51.096;17.006;2024-01-25T02:59:57;100133.67;;;9.57;54.41
76819;BME280;65772;51.096;17.006;2024-01-25T03:02:28;100137.71;;;9.56;54.54
76819;BME280;65772;51.096;17.006;2024-01-25T03:04:58;100140.05;;;9.54;54.67
76819;BME280;65772;51.096;17.006;2024-01-25T03:07:29;100140.08;;;9.55;54.60
76819;BME280;65772;51.096;17.006;2024-01-25T03:10:00;100140.80;;;9.56;54.65
76819;BME280;65772;51.096;17.006;2024-01-25T03:12:31;100154.72;;;9.54;54.31
76819;BME280;65772;51.096;17.006;2024-01-25T03:15:02;100148.91;;;9.54;54.28
76819;BME280;65772;51.096;17.006;2024-01-25T03:17:35;100152.35;;;9.55;54.46
76819;BME280;65772;51.096;17.006;2024-01-25T03:20:07;100152.34;;;9.54;53.99
76819;BME280;65772;51.096;17.006;2024-01-25T03:22:39;100152.15;;;9.54;54.24
76819;BME280;65772;51.096;17.006;2024-01-25T03:25:11;100154.72;;;9.54;54.11
76819;BME280;65772;51.096;17.006;2024-01-25T03:27:42;100155.55;;;9.52;54.10
76819;BME280;65772;51.096;17.006;2024-01-25T03:30:13;100158.61;;;9.53;53.81
76819;BME280;65772;51.096;17.006;2024-01-25T03:32:45;100159.75;;;9.51;54.03
76819;BME280;65772;51.096;17.006;2024-01-25T03:35:17;100152.73;;;9.50;54.39
76819;BME280;65772;51.096;17.006;2024-01-25T03:37:47;100157.50;;;9.49;54.30
76819;BME280;65772;51.096;17.006;2024-01-25T03:40:18;100152.36;;;9.49;54.27
76819;BME280;65772;51.096;17.006;2024-01-25T03:42:49;100162.09;;;9.49;54.13
76819;BME280;65772;51.096;17.006;2024-01-25T03:45:40;100154.61;;;9.50;54.16
76819;BME280;65772;51.096;17.006;2024-01-25T03:48:10;100159.85;;;9.49;54.22
76819;BME280;65772;51.096;17.006;2024-01-25T03:50:42;100157.27;;;9.48;53.86
76819;BME280;65772;51.096;17.006;2024-01-25T03:53:13;100160.34;;;9.48;53.94
76819;BME280;65772;51.096;17.006;2024-01-25T03:55:44;100154.88;;;9.48;53.95
76819;BME280;65772;51.096;17.006;2024-01-25T03:58:14;100149.38;;;9.46;54.05
76819;BME280;65772;51.096;17.006;2024-01-25T04:00:45;100140.80;;;9.45;53.83
76819;BME280;65772;51.096;17.006;2024-01-25T04:03:16;100142.14;;;9.44;54.09
76819;BME280;65772;51.096;17.006;2024-01-25T04:05:46;100148.28;;;9.44;54.27
76819;BME280;65772;51.096;17.006;2024-01-25T04:08:17;100140.74;;;9.43;54.08
76819;BME280;65772;51.096;17.006;2024-01-25T04:10:47;100141.63;;;9.44;54.38
76819;BME280;65772;51.096;17.006;2024-01-25T04:13:19;100139.45;;;9.45;54.44
76819;BME280;65772;51.096;17.006;2024-01-25T04:15:50;100152.45;;;9.46;54.27
76819;BME280;65772;51.096;17.006;2024-01-25T04:18:21;100153.78;;;9.46;54.35
76819;BME280;65772;51.096;17.006;2024-01-25T04:20:51;100148.98;;;9.45;54.52
76819;BME280;65772;51.096;17.006;2024-01-25T04:23:22;100139.95;;;9.45;54.80
76819;BME280;65772;51.096;17.006;2024-01-25T04:25:52;100142.80;;;9.43;54.81
76819;BME280;65772;51.096;17.006;2024-01-25T04:28:24;100142.48;;;9.44;54.69
76819;BME280;65772;51.096;17.006;2024-01-25T04:30:55;100138.26;;;9.45;55.15
76819;BME280;65772;51.096;17.006;2024-01-25T04:33:26;100137.61;;;9.46;55.16
76819;BME280;65772;51.096;17.006;2024-01-25T04:35:56;100137.29;;;9.47;54.90
76819;BME280;65772;51.096;17.006;2024-01-25T04:38:27;100138.91;;;9.44;55.17
76819;BME280;65772;51.096;17.006;2024-01-25T04:40:57;100144.67;;;9.44;55.25
76819;BME280;65772;51.096;17.006;2024-01-25T04:43:28;100147.06;;;9.43;55.23
76819;BME280;65772;51.096;17.006;2024-01-25T04:45:58;100133.24;;;9.42;55.86
76819;BME280;65772;51.096;17.006;2024-01-25T04:48:29;100146.34;;;9.41;56.26
76819;BME280;65772;51.096;17.006;2024-01-25T04:51:01;100144.00;;;9.38;56.40
76819;BME280;65772;51.096;17.006;2024-01-25T04:53:31;100130.70;;;9.32;56.34
76819;BME280;65772;51.096;17.006;2024-01-25T04:56:02;100123.15;;;9.30;56.00
76819;BME280;65772;51.096;17.006;2024-01-25T04:58:33;100130.95;;;9.29;56.03
76819;BME280;65772;51.096;17.006;2024-01-25T05:01:04;100125.10;;;9.27;56.27
76819;BME280;65772;51.096;17.006;2024-01-25T05:03:36;100129.73;;;9.23;56.33
76819;BME280;65772;51.096;17.006;2024-01-25T05:06:07;100125.20;;;9.19;56.14
76819;BME280;65772;51.096;17.006;2024-01-25T05:08:38;100124.29;;;9.17;56.17
76819;BME280;65772;51.096;17.006;2024-01-25T05:11:08;100131.85;;;9.14;56.61
76819;BME280;65772;51.096;17.006;2024-01-25T05:13:39;100126.69;;;9.13;56.45
76819;BME280;65772;51.096;17.006;2024-01-25T05:16:10;100134.67;;;9.12;56.45
76819;BME280;65772;51.096;17.006;2024-01-25T05:18:41;100140.67;;;9.13;56.54
76819;BME280;65772;51.096;17.006;2024-01-25T05:21:12;100138.89;;;9.10;56.69
76819;BME280;65772;51.096;17.006;2024-01-25T05:23:42;100139.25;;;9.11;56.53
76819;BME280;65772;51.096;17.006;2024-01-25T05:26:13;100135.05;;;9.13;56.43
76819;BME280;65772;51.096;17.006;2024-01-25T05:28:43;100135.02;;;9.12;56.37
76819;BME280;65772;51.096;17.006;2024-01-25T05:31:14;100131.41;;;9.11;56.20
76819;BME280;65772;51.096;17.006;2024-01-25T05:33:46;100134.66;;;9.12;56.22
76819;BME280;65772;51.096;17.006;2024-01-25T05:36:17;100131.42;;;9.11;56.23
76819;BME280;65772;51.096;17.006;2024-01-25T05:38:47;100135.42;;;9.14;56.10
76819;BME280;65772;51.096;17.006;2024-01-25T05:41:18;100143.30;;;9.15;56.43
76819;BME280;65772;51.096;17.006;2024-01-25T05:43:49;100147.41;;;9.16;56.43
76819;BME280;65772;51.096;17.006;2024-01-25T05:46:19;100131.40;;;9.16;56.53
76819;BME280;65772;51.096;17.006;2024-01-25T05:48:50;100134.48;;;9.16;57.20
76819;BME280;65772;51.096;17.006;2024-01-25T05:51:20;100154.05;;;9.16;56.80
76819;BME280;65772;51.096;17.006;2024-01-25T05:53:51;100165.11;;;9.11;57.21
76819;BME280;65772;51.096;17.006;2024-01-25T05:56:21;100150.88;;;9.07;57.52
76819;BME280;65772;51.096;17.006;2024-01-25T05:58:52;100168.14;;;9.09;58.46
76819;BME280;65772;51.096;17.006;2024-01-25T06:01:22;100168.44;;;9.08;58.05
76819;BME280;65772;51.096;17.006;2024-01-25T06:03:54;100160.70;;;9.06;57.99
76819;BME280;65772;51.096;17.006;2024-01-25T06:06:25;100164.02;;;9.03;58.08
76819;BME280;65772;51.096;17.006;2024-01-25T06:08:55;100170.33;;;8.98;58.42
76819;BME280;65772;51.096;17.006;2024-01-25T06:11:39;100176.38;;;8.96;58.36
76819;BME280;65772;51.096;17.006;2024-01-25T06:14:11;100175.84;;;8.95;58.89
76819;BME280;65772;51.096;17.006;2024-01-25T06:16:41;100172.99;;;8.92;58.85
76819;BME280;65772;51.096;17.006;2024-01-25T06:19:12;100170.20;;;8.89;58.97
76819;BME280;65772;51.096;17.006;2024-01-25T06:21:43;100173.23;;;8.88;58.92
76819;BME280;65772;51.096;17.006;2024-01-25T06:24:13;100169.77;;;8.87;59.07
76819;BME280;65772;51.096;17.006;2024-01-25T06:26:44;100177.58;;;8.86;58.78
76819;BME280;65772;51.096;17.006;2024-01-25T06:29:14;100178.98;;;8.87;58.45
76819;BME280;65772;51.096;17.006;2024-01-25T06:31:45;100181.91;;;8.88;58.56
76819;BME280;65772;51.096;17.006;2024-01-25T06:34:16;100182.20;;;8.87;58.88
76819;BME280;65772;51.096;17.006;2024-01-25T06:36:46;100189.56;;;8.88;58.50
76819;BME280;65772;51.096;17.006;2024-01-25T06:39:17;100192.97;;;8.88;58.44
76819;BME280;65772;51.096;17.006;2024-01-25T06:41:48;100198.07;;;8.88;58.72
76819;BME280;65772;51.096;17.006;2024-01-25T06:44:18;100202.95;;;8.86;58.07
76819;BME280;65772;51.096;17.006;2024-01-25T06:46:49;100200.10;;;8.88;58.42
76819;BME280;65772;51.096;17.006;2024-01-25T06:49:19;100206.09;;;8.88;58.04
76819;BME280;65772;51.096;17.006;2024-01-25T06:51:50;100204.53;;;8.87;57.86
76819;BME280;65772;51.096;17.006;2024-01-25T06:54:20;100199.77;;;8.87;57.67
76819;BME280;65772;51.096;17.006;2024-01-25T06:56:51;100197.19;;;8.87;57.47
76819;BME280;65772;51.096;17.006;2024-01-25T06:59:22;100200.76;;;8.87;57.73
76819;BME280;65772;51.096;17.006;2024-01-25T07:01:53;100203.27;;;8.86;57.42
76819;BME280;65772;51.096;17.006;2024-01-25T07:04:25;100208.49;;;8.84;57.40
76819;BME280;65772;51.096;17.006;2024-01-25T07:06:56;100194.86;;;8.84;57.11
76819;BME280;65772;51.096;17.006;2024-01-25T07:09:26;100208.06;;;8.82;57.13
76819;BME280;65772;51.096;17.006;2024-01-25T07:11:57;100209.36;;;8.79;57.06
76819;BME280;65772;51.096;17.006;2024-01-25T07:14:27;100204.42;;;8.79;56.75
76819;BME280;65772;51.096;17.006;2024-01-25T07:16:58;100211.88;;;8.78;56.83
76819;BME280;65772;51.096;17.006;2024-01-25T07:19:28;100205.44;;;8.78;56.60
76819;BME280;65772;51.096;17.006;2024-01-25T07:21:59;100217.55;;;8.80;56.50
76819;BME280;65772;51.096;17.006;2024-01-25T07:24:30;100225.34;;;8.84;56.43
76819;BME280;65772;51.096;17.006;2024-01-25T07:27:01;100215.23;;;8.87;56.41
76819;BME280;65772;51.096;17.006;2024-01-25T07:29:32;100228.00;;;8.87;56.19
76819;BME280;65772;51.096;17.006;2024-01-25T07:32:03;100221.68;;;8.86;56.06
76819;BME280;65772;51.096;17.006;2024-01-25T07:34:33;100210.02;;;8.84;55.73
76819;BME280;65772;51.096;17.006;2024-01-25T07:37:04;100229.98;;;8.80;55.84
76819;BME280;65772;51.096;17.006;2024-01-25T07:39:35;100231.71;;;8.81;55.54
76819;BME280;65772;51.096;17.006;2024-01-25T07:42:06;100231.54;;;8.81;55.65
76819;BME280;65772;51.096;17.006;2024-01-25T07:44:36;100241.03;;;8.80;55.53
76819;BME280;65772;51.096;17.006;2024-01-25T07:47:07;100243.89;;;8.79;55.51
76819;BME280;65772;51.096;17.006;2024-01-25T07:49:37;100250.52;;;8.78;55.76
76819;BME280;65772;51.096;17.006;2024-01-25T07:52:08;100263.30;;;8.79;55.57
76819;BME280;65772;51.096;17.006;2024-01-25T07:54:39;100270.33;;;8.81;55.35
76819;BME280;65772;51.096;17.006;2024-01-25T07:57:09;100277.64;;;8.80;55.56
76819;BME280;65772;51.096;17.006;2024-01-25T07:59:40;100278.52;;;8.81;55.47
76819;BME280;65772;51.096;17.006;2024-01-25T08:02:11;100279.77;;;8.83;55.23
76819;BME280;65772;51.096;17.006;2024-01-25T08:04:42;100275.10;;;8.85;55.08
76819;BME280;65772;51.096;17.006;2024-01-25T08:07:13;100271.30;;;8.89;54.98
76819;BME280;65772;51.096;17.006;2024-01-25T08:09:44;100275.77;;;8.90;54.85
76819;BME280;65772;51.096;17.006;2024-01-25T08:12:14;100284.17;;;8.92;55.06
76819;BME280;65772;51.096;17.006;2024-01-25T08:14:45;100286.63;;;8.94;54.84
76819;BME280;65772;51.096;17.006;2024-01-25T08:17:15;100296.65;;;8.94;54.60
76819;BME280;65772;51.096;17.006;2024-01-25T08:19:46;100298.89;;;8.94;54.67
76819;BME280;65772;51.096;17.006;2024-01-25T08:22:20;100302.82;;;8.95;54.69
76819;BME280;65772;51.096;17.006;2024-01-25T08:24:52;100302.96;;;8.94;55.09
76819;BME280;65772;51.096;17.006;2024-01-25T08:27:22;100304.33;;;8.94;54.64
76819;BME280;65772;51.096;17.006;2024-01-25T08:29:53;100311.11;;;8.93;54.56
76819;BME280;65772;51.096;17.006;2024-01-25T08:32:23;100321.02;;;8.94;54.48
76819;BME280;65772;51.096;17.006;2024-01-25T08:34:54;100328.48;;;8.93;54.21
76819;BME280;65772;51.096;17.006;2024-01-25T08:37:26;100316.92;;;8.89;53.95
76819;BME280;65772;51.096;17.006;2024-01-25T08:39:57;100313.19;;;8.89;53.91
76819;BME280;65772;51.096;17.006;2024-01-25T08:42:28;100320.36;;;8.90;53.56
76819;BME280;65772;51.096;17.006;2024-01-25T08:44:58;100328.05;;;8.91;53.96
76819;BME280;65772;51.096;17.006;2024-01-25T08:47:29;100328.44;;;8.92;53.98
76819;BME280;65772;51.096;17.006;2024-01-25T08:49:59;100327.41;;;8.92;53.80
76819;BME280;65772;51.096;17.006;2024-01-25T08:52:30;100339.11;;;8.91;53.67
76819;BME280;65772;51.096;17.006;2024-01-25T08:55:01;100339.81;;;8.92;53.76
76819;BME280;65772;51.096;17.006;2024-01-25T08:57:31;100336.30;;;8.93;53.79
76819;BME280;65772;51.096;17.006;2024-01-25T09:00:02;100335.80;;;8.94;53.57
76819;BME280;65772;51.096;17.006;2024-01-25T09:02:37;100336.81;;;8.93;53.58
76819;BME280;65772;51.096;17.006;2024-01-25T09:05:09;100337.02;;;8.94;53.66
76819;BME280;65772;51.096;17.006;2024-01-25T09:07:40;100341.66;;;8.95;53.22
76819;BME280;65772;51.096;17.006;2024-01-25T09:10:11;100338.25;;;8.95;53.46
76819;BME280;65772;51.096;17.006;2024-01-25T09:12:42;100343.33;;;8.94;53.38
76819;BME280;65772;51.096;17.006;2024-01-25T09:15:13;100355.83;;;8.96;53.58
76819;BME280;65772;51.096;17.006;2024-01-25T09:17:44;100359.74;;;8.96;53.13
76819;BME280;65772;51.096;17.006;2024-01-25T09:20:16;100366.73;;;8.96;53.05
76819;BME280;65772;51.096;17.006;2024-01-25T09:22:46;100359.11;;;8.97;53.53
76819;BME280;65772;51.096;17.006;2024-01-25T09:25:17;100376.23;;;8.99;53.05
76819;BME280;65772;51.096;17.006;2024-01-25T09:27:48;100383.02;;;8.99;53.28
76819;BME280;65772;51.096;17.006;2024-01-25T09:30:20;100380.50;;;9.01;53.33
76819;BME280;65772;51.096;17.006;2024-01-25T09:32:50;100385.70;;;9.03;53.13
76819;BME280;65772;51.096;17.006;2024-01-25T09:35:21;100380.30;;;9.05;53.27
76819;BME280;65772;51.096;17.006;2024-01-25T09:37:52;100379.68;;;9.06;53.38
76819;BME280;65772;51.096;17.006;2024-01-25T09:40:23;100378.48;;;9.10;53.47
76819;BME280;65772;51.096;17.006;2024-01-25T09:42:54;100377.82;;;9.11;52.89
76819;BME280;65772;51.096;17.006;2024-01-25T09:45:25;100383.77;;;9.11;52.93
76819;BME280;65772;51.096;17.006;2024-01-25T09:47:56;100389.23;;;9.11;53.09
76819;BME280;65772;51.096;17.006;2024-01-25T09:50:27;100389.08;;;9.12;53.18
76819;BME280;65772;51.096;17.006;2024-01-25T09:53:04;100386.25;;;9.14;53.31
76819;BME280;65772;51.096;17.006;2024-01-25T09:55:38;100389.11;;;9.13;53.26
76819;BME280;65772;51.096;17.006;2024-01-25T09:58:11;100395.73;;;9.12;53.31
76819;BME280;65772;51.096;17.006;2024-01-25T10:00:42;100399.98;;;9.12;53.15
76819;BME280;65772;51.096;17.006;2024-01-25T10:03:13;100390.08;;;9.11;53.14
76819;BME280;65772;51.096;17.006;2024-01-25T10:05:43;100390.45;;;9.12;53.34
76819;BME280;65772;51.096;17.006;2024-01-25T10:08:15;100390.52;;;9.14;52.81
76819;BME280;65772;51.096;17.006;2024-01-25T10:10:46;100391.92;;;9.15;53.11
76819;BME280;65772;51.096;17.006;2024-01-25T10:13:17;100391.41;;;9.15;52.84
76819;BME280;65772;51.096;17.006;2024-01-25T10:15:48;100396.89;;;9.16;53.41
76819;BME280;65772;51.096;17.006;2024-01-25T10:18:19;100399.34;;;9.18;53.06
76819;BME280;65772;51.096;17.006;2024-01-25T10:20:58;100407.41;;;9.20;53.52
76819;BME280;65772;51.096;17.006;2024-01-25T10:23:31;100402.73;;;9.22;53.13
76819;BME280;65772;51.096;17.006;2024-01-25T10:26:02;100412.15;;;9.24;53.20
76819;BME280;65772;51.096;17.006;2024-01-25T10:28:33;100414.48;;;9.22;52.65
76819;BME280;65772;51.096;17.006;2024-01-25T10:31:05;100411.52;;;9.20;53.03
76819;BME280;65772;51.096;17.006;2024-01-25T10:33:38;100411.34;;;9.19;52.64
76819;BME280;65772;51.096;17.006;2024-01-25T10:36:09;100410.61;;;9.18;52.93
76819;BME280;65772;51.096;17.006;2024-01-25T10:38:40;100414.36;;;9.18;52.89
76819;BME280;65772;51.096;17.006;2024-01-25T10:41:14;100419.80;;;9.18;52.59
76819;BME280;65772;51.096;17.006;2024-01-25T10:43:45;100411.64;;;9.19;52.11
76819;BME280;65772;51.096;17.006;2024-01-25T10:46:16;100410.77;;;9.18;51.96
76819;BME280;65772;51.096;17.006;2024-01-25T10:48:47;100420.16;;;9.18;52.35
76819;BME280;65772;51.096;17.006;2024-01-25T10:51:18;100418.51;;;9.20;52.63
76819;BME280;65772;51.096;17.006;2024-01-25T10:53:49;100415.65;;;9.21;52.84
76819;BME280;65772;51.096;17.006;2024-01-25T10:56:21;100412.27;;;9.22;52.60
76819;BME280;65772;51.096;17.006;2024-01-25T10:58:52;100417.71;;;9.22;52.41
76819;BME280;65772;51.096;17.006;2024-01-25T11:01:23;100402.90;;;9.23;52.45
76819;BME280;65772;51.096;17.006;2024-01-25T11:03:55;100407.92;;;9.25;52.71
76819;BME280;65772;51.096;17.006;2024-01-25T11:06:28;100402.02;;;9.26;52.40
76819;BME280;65772;51.096;17.006;2024-01-25T11:09:06;100403.29;;;9.28;52.18
76819;BME280;65772;51.096;17.006;2024-01-25T11:11:38;100408.20;;;9.32;52.36
76819;BME280;65772;51.096;17.006;2024-01-25T11:14:13;100409.24;;;9.32;51.40
76819;BME280;65772;51.096;17.006;2024-01-25T11:16:44;100391.87;;;9.33;50.53
76819;BME280;65772;51.096;17.006;2024-01-25T11:19:21;100398.29;;;9.31;50.90
76819;BME280;65772;51.096;17.006;2024-01-25T11:21:54;100406.25;;;9.30;51.30
76819;BME280;65772;51.096;17.006;2024-01-25T11:24:25;100412.70;;;9.29;51.72
76819;BME280;65772;51.096;17.006;2024-01-25T11:26:56;100417.18;;;9.31;52.19
76819;BME280;65772;51.096;17.006;2024-01-25T11:29:27;100421.16;;;9.33;52.39
76819;BME280;65772;51.096;17.006;2024-01-25T11:31:57;100435.91;;;9.30;52.73
76819;BME280;65772;51.096;17.006;2024-01-25T11:34:28;100434.45;;;9.28;52.76
76819;BME280;65772;51.096;17.006;2024-01-25T11:37:00;100438.05;;;9.24;52.74
76819;BME280;65772;51.096;17.006;2024-01-25T11:39:31;100433.38;;;9.22;53.03
76819;BME280;65772;51.096;17.006;2024-01-25T11:42:02;100429.69;;;9.24;52.93
76819;BME280;65772;51.096;17.006;2024-01-25T11:44:33;100438.32;;;9.27;53.22
76819;BME280;65772;51.096;17.006;2024-01-25T11:47:04;100443.83;;;9.28;53.10
76819;BME280;65772;51.096;17.006;2024-01-25T11:49:35;100445.94;;;9.30;52.98
76819;BME280;65772;51.096;17.006;2024-01-25T11:52:06;100455.14;;;9.30;52.81
76819;BME280;65772;51.096;17.006;2024-01-25T11:54:37;100447.63;;;9.29;52.49
76819;BME280;65772;51.096;17.006;2024-01-25T11:57:08;100452.23;;;9.29;52.28
76819;BME280;65772;51.096;17.006;2024-01-25T11:59:39;100460.02;;;9.28;52.27
76819;BME280;65772;51.096;17.006;2024-01-25T12:02:09;100456.77;;;9.28;52.50
76819;BME280;65772;51.096;17.006;2024-01-25T12:04:40;100470.29;;;9.30;52.34
76819;BME280;65772;51.096;17.006;2024-01-25T12:07:11;100465.84;;;9.29;52.60
76819;BME280;65772;51.096;17.006;2024-01-25T12:09:42;100470.56;;;9.28;52.00
76819;BME280;65772;51.096;17.006;2024-01-25T12:12:12;100468.42;;;9.26;51.60
76819;BME280;65772;51.096;17.006;2024-01-25T12:14:43;100470.04;;;9.28;51.76
76819;BME280;65772;51.096;17.006;2024-01-25T12:17:15;100472.05;;;9.31;51.82
76819;BME280;65772;51.096;17.006;2024-01-25T12:19:45;100462.81;;;9.35;51.77
76819;BME280;65772;51.096;17.006;2024-01-25T12:22:22;100472.67;;;9.39;51.04
76819;BME280;65772;51.096;17.006;2024-01-25T12:24:56;100470.23;;;9.42;50.45
76819;BME280;65772;51.096;17.006;2024-01-25T12:27:30;100464.45;;;9.42;50.19
76819;BME280;65772;51.096;17.006;2024-01-25T12:30:02;100462.52;;;9.41;50.07
76819;BME280;65772;51.096;17.006;2024-01-25T12:32:33;100467.75;;;9.39;50.32
76819;BME280;65772;51.096;17.006;2024-01-25T12:35:04;100471.90;;;9.41;50.77
76819;BME280;65772;51.096;17.006;2024-01-25T12:37:36;100480.80;;;9.42;50.80
76819;BME280;65772;51.096;17.006;2024-01-25T12:40:09;100470.41;;;9.43;50.94
76819;BME280;65772;51.096;17.006;2024-01-25T12:42:40;100481.14;;;9.42;51.26
76819;BME280;65772;51.096;17.006;2024-01-25T12:45:11;100480.80;;;9.42;51.55
76819;BME280;65772;51.096;17.006;2024-01-25T12:47:42;100480.80;;;9.42;51.31
76819;BME280;65772;51.096;17.006;2024-01-25T12:50:13;100482.01;;;9.43;51.34
76819;BME280;65772;51.096;17.006;2024-01-25T12:52:44;100468.54;;;9.42;50.18
76819;BME280;65772;51.096;17.006;2024-01-25T12:55:16;100496.82;;;9.42;49.89
76819;BME280;65772;51.096;17.006;2024-01-25T12:57:47;100499.21;;;9.43;49.59
76819;BME280;65772;51.096;17.006;2024-01-25T13:00:18;100501.20;;;9.41;49.20
76819;BME280;65772;51.096;17.006;2024-01-25T13:02:49;100503.01;;;9.39;49.03
76819;BME280;65772;51.096;17.006;2024-01-25T13:05:22;100499.30;;;9.40;49.47
76819;BME280;65772;51.096;17.006;2024-01-25T13:07:52;100504.60;;;9.41;49.88
76819;BME280;65772;51.096;17.006;2024-01-25T13:10:23;100503.43;;;9.41;49.72
76819;BME280;65772;51.096;17.006;2024-01-25T13:12:54;100501.15;;;9.39;48.94